This is the latest recevied weather packets stored in our database for station/object OK2ZAW-23. If no packets are shown the sender has not sent any weather packets the latest 1 day(s).
| Time | Temp. | Humidity | Pressure | Rain* | Wind** | Luminosity | Snow |
|---|---|---|---|---|---|---|---|
| 1778009145 | 17.22° C | 45% | 1002.2 hPa | - | 0 m/s | 336 W/m² | - |
| 1778008831 | 17.22° C | 45% | 1002.3 hPa | - | 0 m/s | 335 W/m² | - |
| 1778008518 | 17.78° C | 44% | 1002.3 hPa | - | 0 m/s | 335 W/m² | - |
| 1778008204 | 17.78° C | 43% | 1002.3 hPa | - | 0 m/s | 336 W/m² | - |
| 1778007262 | 18.33° C | 42% | 1002.1 hPa | - | 0 m/s | 335 W/m² | - |
| 1778006634 | 18.89° C | 41% | 1002.1 hPa | - | 0 m/s | 336 W/m² | - |
| 1778006319 | 18.89° C | 39% | 1002 hPa | - | 0 m/s | 336 W/m² | - |
| 1778006005 | 19.44° C | 37% | 1002 hPa | - | 0 m/s | 336 W/m² | - |
| 1778004435 | 20.56° C | 35% | 1001.8 hPa | - | 0 m/s | 336 W/m² | - |
| 1778002863 | 21.67° C | 29% | 1001.8 hPa | - | 0 m/s | 336 W/m² | - |
| 1778000976 | 23.89° C | 25% | 1001.8 hPa | - | 0 m/s | 336 W/m² | - |
| 1778000661 | 24.44° C | 25% | 1001.9 hPa | - | 0 m/s | 336 W/m² | - |
| 1777999717 | 25.56° C | 24% | 1001.9 hPa | - | 0 m/s | 336 W/m² | - |
| 1777997828 | 28.89° C | 21% | 1002.3 hPa | - | 0 m/s | 336 W/m² | - |
| 1777997513 | 29.44° C | 20% | 1002.2 hPa | - | 0 m/s | 336 W/m² | - |
| 1777996566 | 33.89° C | 18% | 1002.3 hPa | - | 0 m/s | 336 W/m² | - |
| 1777996251 | 35° C | 17% | 1002.3 hPa | - | 0 m/s | 336 W/m² | - |
| 1777995618 | 36.67° C | 17% | 1002.2 hPa | - | 0 m/s | 336 W/m² | - |
| 1777995302 | 36.11° C | 17% | 1002.2 hPa | - | 0 m/s | 336 W/m² | - |
| 1777994986 | 35.56° C | 18% | 1002.3 hPa | - | 0 m/s | 336 W/m² | - |
| 1777994670 | 35.56° C | 18% | 1002.4 hPa | - | 0 m/s | 336 W/m² | - |
| 1777994038 | 35.56° C | 19% | 1002.5 hPa | - | 0 m/s | 336 W/m² | - |
| 1777993722 | 35.56° C | 18% | 1002.3 hPa | - | 0 m/s | 336 W/m² | - |
| 1777992774 | 35° C | 20% | 1002.7 hPa | - | 0 m/s | 336 W/m² | - |
| 1777992458 | 35° C | 21% | 1002.7 hPa | - | 0 m/s | 336 W/m² | - |
* Rain since midnight (hover to see other rain measurements)
** Current wind speed in m/s (hover to see current wind gust speed)